Time;durP1;ratioP1;P1;durP2;ratioP2;P2;SDS_P1;SDS_P2;PMS_P1;PMS_P2;Temp;Humidity;BMP_temperature;BMP_pressure;BME280_temperature;BME280_humidity;BME280_pressure;Samples;Min_cycle;Max_cycle;Signal;HPM_P1;HPM_P2
2023/06/17 00:01:18;;;;;;;3.45;2.70;;;;;;;12.64;100.00;97532.16;1708809;75;669082;-71
2023/06/17 00:03:48;;;;;;;2.30;2.10;;;;;;;12.71;100.00;97531.69;1700753;75;749906;-72
2023/06/17 00:06:19;;;;;;;2.50;2.00;;;;;;;12.56;100.00;97536.63;1709373;75;671839;-69
2023/06/17 00:08:49;;;;;;;2.95;2.50;;;;;;;12.60;100.00;97539.13;1700928;75;745941;-70
2023/06/17 00:11:22;;;;;;;2.65;2.40;;;;;;;12.62;100.00;97542.88;1708488;75;670329;-69
2023/06/17 00:13:53;;;;;;;2.65;2.20;;;;;;;12.51;100.00;97537.34;1700755;75;757166;-70
2023/06/17 00:16:24;;;;;;;2.40;2.00;;;;;;;12.53;100.00;97526.63;1709823;75;674328;-72
2023/06/17 00:18:55;;;;;;;2.00;1.65;;;;;;;12.52;100.00;97536.84;1700936;75;745750;-70
2023/06/17 00:21:25;;;;;;;1.60;1.50;;;;;;;12.52;100.00;97538.84;1708138;75;673812;-71
2023/06/17 00:23:55;;;;;;;1.80;1.45;;;;;;;12.52;100.00;97533.34;1700459;75;750568;-70
2023/06/17 00:26:28;;;;;;;2.25;1.65;;;;;;;12.39;100.00;97531.06;1709435;75;703461;-69
2023/06/17 00:28:58;;;;;;;1.50;1.40;;;;;;;12.36;100.00;97521.81;1700725;75;768532;-71
2023/06/17 00:31:28;;;;;;;2.25;1.90;;;;;;;12.27;100.00;97530.25;1708944;75;701375;-70
2023/06/17 00:33:59;;;;;;;2.00;1.80;;;;;;;12.24;100.00;97535.94;1699558;75;722896;-70
2023/06/17 00:36:29;;;;;;;3.30;2.00;;;;;;;12.21;100.00;97523.94;1708985;75;686572;-70
2023/06/17 00:38:59;;;;;;;1.95;1.70;;;;;;;12.22;100.00;97527.44;1700645;75;736541;-72
2023/06/17 00:41:32;;;;;;;2.35;1.70;;;;;;;12.27;100.00;97527.50;1709145;75;671040;-69
2023/06/17 00:44:02;;;;;;;2.00;1.70;;;;;;;12.15;100.00;97531.41;1697377;75;959474;-72
2023/06/17 00:46:40;;;;;;;2.00;1.80;;;;;;;12.03;100.00;97532.59;1709213;75;690996;-71
2023/06/17 00:49:12;;;;;;;2.85;2.40;;;;;;;11.92;100.00;97533.97;1699833;75;762724;-69
2023/06/17 00:51:42;;;;;;;6.15;4.20;;;;;;;11.71;100.00;97538.81;1709251;75;671895;-70
2023/06/17 00:54:15;;;;;;;4.65;3.35;;;;;;;11.99;100.00;97530.03;1699073;75;769678;-71
2023/06/17 00:56:48;;;;;;;3.50;2.70;;;;;;;12.02;100.00;97529.06;1709551;75;674628;-70
2023/06/17 00:59:18;;;;;;;2.90;2.25;;;;;;;11.97;100.00;97531.78;1700304;75;753222;-70
2023/06/17 01:01:49;;;;;;;2.10;1.80;;;;;;;11.96;100.00;97522.06;1709181;75;680335;-71
2023/06/17 01:04:19;;;;;;;2.00;1.80;;;;;;;12.02;100.00;97531.06;1699938;75;739019;-71
2023/06/17 01:07:00;;;;;;;3.75;3.30;;;;;;;11.88;100.00;97524.47;1709101;75;678018;-70
2023/06/17 01:09:38;;;;;;;2.70;2.40;;;;;;;11.86;100.00;97526.94;1701178;75;733637;-69
2023/06/17 01:12:14;;;;;;;2.70;2.20;;;;;;;11.94;100.00;97517.78;1701661;75;677339;-73
2023/06/17 01:14:45;;;;;;;3.45;3.15;;;;;;;11.77;100.00;97527.13;1709560;75;685921;-70
2023/06/17 01:17:17;;;;;;;3.60;2.90;;;;;;;11.80;100.00;97524.13;1701465;75;685566;-72
2023/06/17 01:19:49;;;;;;;3.70;2.90;;;;;;;11.80;100.00;97537.09;1709096;75;669396;-69
2023/06/17 01:22:21;;;;;;;2.75;2.40;;;;;;;11.85;100.00;97520.69;1701941;75;678521;-72
2023/06/17 01:24:56;;;;;;;3.40;2.30;;;;;;;11.74;100.00;97526.09;1694682;75;1918553;-71
2023/06/17 01:27:28;;;;;;;2.20;1.80;;;;;;;11.72;100.00;97523.09;1701682;75;674978;-71
2023/06/17 01:29:58;;;;;;;2.45;1.95;;;;;;;11.68;100.00;97533.53;1706115;75;928582;-69
2023/06/17 01:32:28;;;;;;;2.00;1.80;;;;;;;11.64;100.00;97535.72;1701903;75;673687;-72
2023/06/17 01:35:06;;;;;;;2.80;2.20;;;;;;;11.58;100.00;97532.19;1708731;75;675639;-72
2023/06/17 01:37:43;;;;;;;2.10;1.90;;;;;;;11.59;100.00;97530.94;1700806;75;739455;-70
2023/06/17 01:40:21;;;;;;;2.10;1.90;;;;;;;11.54;100.00;97526.16;1701242;75;675911;-70
2023/06/17 01:42:54;;;;;;;1.80;1.60;;;;;;;11.54;100.00;97521.44;1710008;75;669270;-70
2023/06/17 01:45:26;;;;;;;2.00;1.70;;;;;;;11.51;100.00;97519.66;1702667;75;676615;-71
2023/06/17 01:47:56;;;;;;;2.70;1.50;;;;;;;11.50;100.00;97524.41;1710637;75;679547;-72
2023/06/17 01:50:27;;;;;;;1.65;1.40;;;;;;;11.50;100.00;97516.19;1700907;75;679468;-70
2023/06/17 01:52:57;;;;;;;1.70;1.50;;;;;;;11.35;100.00;97525.75;1709613;75;673851;-70
2023/06/17 01:55:30;;;;;;;3.20;2.40;;;;;;;11.26;100.00;97521.19;1701710;75;670997;-70
2023/06/17 01:58:00;;;;;;;3.00;2.70;;;;;;;11.31;100.00;97515.00;1709620;75;669903;-69
2023/06/17 02:00:31;;;;;;;2.20;2.00;;;;;;;11.27;100.00;97520.69;1700509;75;674003;-71
2023/06/17 02:03:01;;;;;;;2.10;1.80;;;;;;;11.25;100.00;97522.41;1709280;75;686444;-70
2023/06/17 02:05:31;;;;;;;2.20;1.90;;;;;;;11.22;100.00;97517.91;1700950;75;679358;-71
2023/06/17 02:08:04;;;;;;;2.10;1.80;;;;;;;11.21;100.00;97519.16;1708948;75;680044;-70
2023/06/17 02:10:37;;;;;;;2.10;1.90;;;;;;;11.12;100.00;97506.34;1700408;75;678547;-70
2023/06/17 02:13:08;;;;;;;1.70;1.60;;;;;;;11.12;100.00;97516.56;1709535;75;673224;-71
2023/06/17 02:15:38;;;;;;;2.85;1.80;;;;;;;11.22;100.00;97506.94;1700548;75;750873;-70
2023/06/17 02:18:08;;;;;;;3.30;2.70;;;;;;;11.08;100.00;97511.28;1709643;75;683608;-70
2023/06/17 02:20:38;;;;;;;2.80;2.50;;;;;;;11.02;100.00;97521.44;1700278;75;750671;-69
2023/06/17 02:23:09;;;;;;;5.65;4.65;;;;;;;11.04;100.00;97521.69;1709353;75;675987;-70
2023/06/17 02:25:42;;;;;;;4.85;2.75;;;;;;;11.09;100.00;97521.78;1700157;75;763744;-70
2023/06/17 02:28:12;;;;;;;2.80;2.35;;;;;;;11.11;100.00;97531.47;1708944;75;715653;-70
2023/06/17 02:30:44;;;;;;;2.55;2.30;;;;;;;11.11;100.00;97534.97;1699594;75;754721;-70
2023/06/17 02:33:17;;;;;;;2.20;2.00;;;;;;;11.07;100.00;97532.47;1709045;75;705251;-71
2023/06/17 02:35:48;;;;;;;2.50;2.30;;;;;;;11.02;100.00;97537.88;1701085;75;735139;-72
2023/06/17 02:38:18;;;;;;;1.90;1.60;;;;;;;11.00;100.00;97543.84;1709657;75;701127;-71
2023/06/17 02:40:53;;;;;;;3.25;2.40;;;;;;;10.92;100.00;97541.97;1700704;75;744247;-70
2023/06/17 02:43:23;;;;;;;2.80;1.80;;;;;;;10.93;100.00;97538.78;1709043;75;705841;-70
2023/06/17 02:45:53;;;;;;;2.10;1.80;;;;;;;10.93;100.00;97536.03;1700840;75;735083;-69
2023/06/17 02:48:24;;;;;;;2.90;1.70;;;;;;;10.86;100.00;97533.72;1710196;75;685446;-72
2023/06/17 02:50:54;;;;;;;1.95;1.75;;;;;;;10.82;100.00;97535.91;1702285;75;746479;-70
2023/06/17 02:53:25;;;;;;;1.60;1.50;;;;;;;10.89;100.00;97535.47;1711199;75;721450;-71
2023/06/17 02:55:57;;;;;;;1.60;1.50;;;;;;;10.90;100.00;97530.78;1702524;75;738159;-69
2023/06/17 02:58:28;;;;;;;1.70;1.40;;;;;;;10.86;100.00;97528.97;1710529;75;670039;-72
2023/06/17 03:00:58;;;;;;;3.65;3.25;;;;;;;10.55;100.00;97532.34;1700485;75;753626;-70
2023/06/17 03:03:33;;;;;;;4.75;4.25;;;;;;;10.48;100.00;97521.03;1709663;75;681687;-70
2023/06/17 03:06:04;;;;;;;3.50;3.10;;;;;;;10.74;100.00;97521.13;1700203;75;743252;-69
2023/06/17 03:08:36;;;;;;;2.45;2.20;;;;;;;10.71;100.00;97522.09;1709550;75;677749;-69
2023/06/17 03:11:10;;;;;;;2.65;2.20;;;;;;;10.78;100.00;97521.69;1700914;75;738072;-70
2023/06/17 03:13:40;;;;;;;2.05;1.85;;;;;;;10.75;100.00;97523.38;1709231;75;689125;-68
2023/06/17 03:16:10;;;;;;;1.80;1.50;;;;;;;10.72;100.00;97535.28;1700228;75;749006;-69
2023/06/17 03:18:40;;;;;;;1.90;1.75;;;;;;;10.62;100.00;97534.66;1709414;75;669934;-70
2023/06/17 03:21:10;;;;;;;2.40;2.05;;;;;;;10.55;100.00;97524.13;1698522;75;808138;-70
2023/06/17 03:23:41;;;;;;;2.45;2.00;;;;;;;10.64;100.00;97531.47;1710079;75;673407;-72
2023/06/17 03:26:13;;;;;;;2.00;1.80;;;;;;;10.65;100.00;97530.22;1701256;75;740591;-69
2023/06/17 03:28:44;;;;;;;1.90;1.70;;;;;;;10.63;100.00;97529.94;1710192;75;676935;-70
2023/06/17 03:31:18;;;;;;;2.20;2.00;;;;;;;10.63;100.00;97524.47;1700801;75;749636;-69
2023/06/17 03:33:48;;;;;;;2.45;1.95;;;;;;;10.64;100.00;97529.47;1709773;75;668484;-70
2023/06/17 03:36:19;;;;;;;1.85;1.70;;;;;;;10.60;100.00;97531.66;1700500;75;746590;-71
2023/06/17 03:38:49;;;;;;;1.80;1.70;;;;;;;10.61;100.00;97533.16;1709436;75;680718;-72
2023/06/17 03:41:22;;;;;;;2.35;1.70;;;;;;;10.72;100.00;97531.78;1699298;75;724754;-71
2023/06/17 03:43:53;;;;;;;1.50;1.40;;;;;;;10.65;100.00;97536.47;1709224;75;673650;-69
2023/06/17 03:46:23;;;;;;;1.85;1.60;;;;;;;10.65;100.00;97544.69;1699909;75;764145;-73
2023/06/17 03:48:53;;;;;;;1.65;1.55;;;;;;;10.64;100.00;97534.19;1709474;75;692049;-69
2023/06/17 03:51:25;;;;;;;2.30;1.90;;;;;;;10.68;100.00;97529.28;1699836;75;755080;-69
2023/06/17 03:53:55;;;;;;;2.00;1.80;;;;;;;10.78;100.00;97541.59;1709709;75;675332;-71
2023/06/17 03:56:29;;;;;;;3.20;2.85;;;;;;;10.60;100.00;97550.81;1700103;75;758628;-70
2023/06/17 03:58:59;;;;;;;2.80;2.40;;;;;;;10.79;100.00;97545.81;1709797;75;673127;-70
2023/06/17 04:01:30;;;;;;;3.10;2.80;;;;;;;10.84;100.00;97538.91;1698169;75;755157;-72
2023/06/17 04:04:00;;;;;;;2.20;2.00;;;;;;;10.83;100.00;97537.41;1708453;75;674115;-70
2023/06/17 04:06:30;;;;;;;5.25;4.15;;;;;;;10.75;100.00;97539.03;1699843;75;722995;-73
2023/06/17 04:09:01;;;;;;;6.00;4.20;;;;;;;10.78;100.00;97546.31;1709205;75;671008;-71
2023/06/17 04:11:34;;;;;;;7.50;4.35;;;;;;;10.86;100.00;97542.66;1699619;75;752518;-71
2023/06/17 04:14:04;;;;;;;3.60;3.30;;;;;;;11.04;100.00;97538.91;1708620;75;676127;-72
2023/06/17 04:16:35;;;;;;;2.95;2.65;;;;;;;11.12;100.00;97533.00;1700117;75;745974;-73
2023/06/17 04:19:05;;;;;;;2.40;2.20;;;;;;;11.11;100.00;97537.72;1709458;75;680322;-72
2023/06/17 04:21:36;;;;;;;2.35;2.00;;;;;;;11.23;100.00;97542.09;1699894;75;755533;-73
2023/06/17 04:24:06;;;;;;;2.30;2.10;;;;;;;11.27;100.00;97539.88;1708991;75;670681;-70
2023/06/17 04:26:40;;;;;;;2.70;2.30;;;;;;;11.31;100.00;97539.69;1700639;75;750261;-72
2023/06/17 04:29:10;;;;;;;2.20;2.00;;;;;;;11.40;100.00;97541.47;1708397;75;699891;-71
2023/06/17 04:31:40;;;;;;;2.65;1.70;;;;;;;11.44;100.00;97545.53;1698527;75;866073;-71
2023/06/17 04:34:21;;;;;;;2.10;1.80;;;;;;;11.46;100.00;97537.56;1709077;75;670003;-69
2023/06/17 04:36:56;;;;;;;1.70;1.60;;;;;;;11.60;100.00;97537.94;1700137;75;763907;-69
2023/06/17 04:39:28;;;;;;;2.45;1.65;;;;;;;11.60;100.00;97541.44;1707543;75;671500;-69
2023/06/17 04:42:00;;;;;;;2.10;1.80;;;;;;;11.66;100.00;97538.72;1709082;75;673556;-69
2023/06/17 04:44:31;;;;;;;3.10;2.30;;;;;;;11.63;100.00;97545.19;1700782;75;708817;-69
2023/06/17 04:47:02;;;;;;;2.60;2.40;;;;;;;11.73;100.00;97546.53;1709186;75;674667;-72
2023/06/17 04:49:38;;;;;;;2.00;1.80;;;;;;;11.84;100.00;97551.34;1700618;75;683075;-70
2023/06/17 04:52:09;;;;;;;2.10;1.90;;;;;;;11.91;100.00;97540.72;1709507;75;671602;-72
2023/06/17 04:54:39;;;;;;;3.30;2.85;;;;;;;12.02;100.00;97542.78;1701041;75;722522;-72
2023/06/17 04:57:13;;;;;;;2.95;2.40;;;;;;;12.10;100.00;97546.59;1708845;75;666713;-70
2023/06/17 04:59:43;;;;;;;2.90;2.20;;;;;;;12.18;100.00;97532.41;1700449;75;674026;-70
2023/06/17 05:02:13;;;;;;;2.60;2.20;;;;;;;12.31;100.00;97536.25;1708743;75;674081;-71
2023/06/17 05:04:43;;;;;;;2.15;1.95;;;;;;;12.39;100.00;97533.03;1701512;75;677968;-70
2023/06/17 05:07:13;;;;;;;2.10;1.90;;;;;;;12.49;100.00;97535.09;1709674;75;674038;-72
2023/06/17 05:09:44;;;;;;;2.00;1.80;;;;;;;12.56;100.00;97539.38;1700762;75;685778;-71
2023/06/17 05:12:17;;;;;;;2.30;2.10;;;;;;;12.58;100.00;97537.63;1709294;75;673836;-70
2023/06/17 05:14:47;;;;;;;3.20;2.80;;;;;;;12.68;100.00;97542.94;1701202;75;682855;-73
2023/06/17 05:17:17;;;;;;;2.60;2.30;;;;;;;12.81;100.00;97553.47;1709149;75;673869;-70
2023/06/17 05:19:48;;;;;;;3.20;2.40;;;;;;;12.92;100.00;97546.03;1700505;75;671419;-70
2023/06/17 05:22:18;;;;;;;2.10;1.90;;;;;;;13.04;100.00;97549.56;1709315;75;685696;-71
2023/06/17 05:24:49;;;;;;;2.40;2.20;;;;;;;13.07;100.00;97547.81;1685501;75;1952393;-73
2023/06/17 05:27:22;;;;;;;2.80;2.50;;;;;;;13.17;100.00;97544.34;1709297;75;671794;-71
2023/06/17 05:29:52;;;;;;;3.35;2.60;;;;;;;13.25;100.00;97549.34;1699476;75;749691;-71
2023/06/17 05:32:24;;;;;;;4.50;3.40;;;;;;;13.37;100.00;97545.41;1709141;75;676253;-71
2023/06/17 05:34:55;;;;;;;4.35;3.10;;;;;;;13.46;100.00;97552.69;1699736;75;737600;-71
2023/06/17 05:37:25;;;;;;;4.50;3.60;;;;;;;13.53;100.00;97547.44;1709448;75;668812;-70
2023/06/17 05:39:55;;;;;;;3.35;2.85;;;;;;;13.64;100.00;97549.47;1698550;75;750247;-69
2023/06/17 05:42:28;;;;;;;4.65;4.05;;;;;;;13.79;100.00;97540.97;1709463;75;675807;-70
2023/06/17 05:44:58;;;;;;;4.55;3.30;;;;;;;13.91;100.00;97549.97;1699657;75;761117;-69
2023/06/17 05:47:30;;;;;;;4.40;3.80;;;;;;;13.98;100.00;97541.94;1709395;75;692785;-70
2023/06/17 05:50:01;;;;;;;5.80;3.90;;;;;;;14.07;100.00;97535.44;1701216;75;734469;-69
2023/06/17 05:52:31;;;;;;;4.70;4.20;;;;;;;14.17;100.00;97538.69;1710925;75;676281;-69
2023/06/17 05:55:01;;;;;;;4.70;3.85;;;;;;;14.29;100.00;97537.41;1701856;75;757355;-69
2023/06/17 05:57:34;;;;;;;3.60;3.00;;;;;;;14.54;100.00;97534.88;1709546;75;675643;-71
2023/06/17 06:00:04;;;;;;;5.00;4.50;;;;;;;14.63;100.00;97542.88;1700206;75;753050;-71
2023/06/17 06:02:34;;;;;;;4.25;3.40;;;;;;;14.81;100.00;97538.78;1709469;75;671591;-69
2023/06/17 06:05:04;;;;;;;6.15;4.40;;;;;;;15.03;99.34;97546.97;1700538;75;740751;-71
2023/06/17 06:07:34;;;;;;;4.00;3.50;;;;;;;15.22;100.00;97541.59;1708725;75;674713;-71
2023/06/17 06:10:07;;;;;;;4.05;3.65;;;;;;;15.27;100.00;97540.06;1699814;75;751269;-70
2023/06/17 06:12:40;;;;;;;7.70;6.50;;;;;;;15.44;99.66;97535.19;1709490;75;677061;-73
2023/06/17 06:15:11;;;;;;;12.15;10.05;;;;;;;15.74;100.00;97546.28;1700661;75;744660;-68
2023/06/17 06:17:41;;;;;;;8.60;7.00;;;;;;;15.96;99.63;97541.84;1708839;75;680063;-70
2023/06/17 06:20:12;;;;;;;6.15;5.45;;;;;;;16.11;99.20;97547.72;1699181;75;749182;-69
2023/06/17 06:22:42;;;;;;;5.55;4.45;;;;;;;16.21;91.79;97550.16;1708535;75;678187;-71
2023/06/17 06:25:13;;;;;;;3.50;3.15;;;;;;;16.42;88.10;97547.72;1700791;75;749888;-72
2023/06/17 06:27:46;;;;;;;4.10;2.90;;;;;;;16.60;88.61;97555.31;1709668;75;672704;-69
2023/06/17 06:30:18;;;;;;;7.05;3.90;;;;;;;16.78;86.03;97554.59;1700413;75;742068;-69
2023/06/17 06:32:48;;;;;;;5.00;3.70;;;;;;;16.96;89.76;97552.41;1708407;75;727607;-73
2023/06/17 06:35:18;;;;;;;4.10;3.00;;;;;;;17.14;84.51;97548.16;1700433;75;751751;-71
2023/06/17 06:37:48;;;;;;;3.60;2.90;;;;;;;17.35;85.94;97551.16;1709792;75;672992;-74
2023/06/17 06:40:19;;;;;;;2.80;2.40;;;;;;;17.50;81.30;97545.16;1700711;75;735004;-72
2023/06/17 06:42:52;;;;;;;4.90;2.60;;;;;;;17.62;77.70;97547.22;1709773;75;690320;-72
2023/06/17 06:45:22;;;;;;;2.95;2.30;;;;;;;17.81;78.76;97549.22;1700550;75;751767;-70
2023/06/17 06:47:52;;;;;;;3.05;2.35;;;;;;;17.97;77.82;97550.25;1709554;75;677642;-71
2023/06/17 06:50:23;;;;;;;2.50;2.20;;;;;;;18.20;73.72;97550.59;1699493;75;755695;-74
2023/06/17 06:52:53;;;;;;;5.30;4.70;;;;;;;18.39;70.96;97556.78;1709559;75;676360;-72
2023/06/17 06:55:23;;;;;;;5.85;4.75;;;;;;;18.64;72.63;97554.59;1700574;75;805160;-74
2023/06/17 06:57:56;;;;;;;5.90;4.45;;;;;;;18.71;70.74;97556.72;1709742;75;679876;-71
2023/06/17 07:00:27;;;;;;;4.95;3.10;;;;;;;18.78;69.19;97554.59;1698996;75;753392;-73
2023/06/17 07:02:57;;;;;;;5.30;4.05;;;;;;;18.88;68.32;97559.19;1709363;75;702730;-70
2023/06/17 07:05:28;;;;;;;3.55;2.80;;;;;;;18.96;68.23;97564.09;1700808;75;744981;-72
2023/06/17 07:07:58;;;;;;;2.50;2.00;;;;;;;19.12;67.60;97563.75;1710266;75;670494;-72
2023/06/17 07:10:28;;;;;;;3.20;2.35;;;;;;;18.98;67.25;97567.06;1700860;75;752975;-73
2023/06/17 07:13:01;;;;;;;3.30;2.70;;;;;;;18.99;66.42;97574.84;1710776;75;674349;-71
2023/06/17 07:15:31;;;;;;;2.90;2.60;;;;;;;19.29;66.71;97566.16;1702330;75;755665;-75
2023/06/17 07:18:01;;;;;;;2.80;2.20;;;;;;;19.45;64.38;97571.88;1711894;75;674532;-72
2023/06/17 07:20:32;;;;;;;3.55;2.40;;;;;;;19.45;64.77;97571.88;1701459;75;745248;-72
2023/06/17 07:23:02;;;;;;;2.70;2.30;;;;;;;19.56;64.92;97574.41;1710377;75;677076;-72
2023/06/17 07:25:33;;;;;;;3.75;2.10;;;;;;;19.64;63.35;97568.94;1700819;75;750768;-72
2023/06/17 07:28:07;;;;;;;2.20;1.70;;;;;;;19.82;62.54;97576.38;1709334;75;688026;-72
2023/06/17 07:30:37;;;;;;;2.45;1.75;;;;;;;19.90;61.94;97574.41;1699879;75;739163;-75
2023/06/17 07:33:08;;;;;;;3.30;1.90;;;;;;;19.87;62.70;97567.16;1708909;75;674773;-71
2023/06/17 07:35:38;;;;;;;3.75;2.85;;;;;;;19.58;63.38;97578.13;1700081;75;755227;-74
2023/06/17 07:38:08;;;;;;;4.30;2.90;;;;;;;19.50;60.86;97580.06;1708931;75;672315;-72
2023/06/17 07:40:38;;;;;;;3.50;2.40;;;;;;;19.95;62.77;97570.72;1699758;75;742217;-73
2023/06/17 07:43:12;;;;;;;4.20;2.45;;;;;;;19.97;62.42;97578.53;1709365;75;672685;-73
2023/06/17 07:45:43;;;;;;;3.20;2.50;;;;;;;20.19;64.36;97575.19;1700929;75;752303;-75
2023/06/17 07:48:13;;;;;;;3.90;2.70;;;;;;;20.36;64.54;97574.78;1709368;75;680184;-75
2023/06/17 07:50:43;;;;;;;6.10;4.25;;;;;;;20.53;63.09;97576.38;1700082;75;761151;-74
2023/06/17 07:53:13;;;;;;;4.85;3.65;;;;;;;20.67;61.00;97569.44;1709655;75;675125;-71
2023/06/17 07:55:43;;;;;;;4.05;2.70;;;;;;;20.78;59.10;97568.38;1700436;75;754927;-73
2023/06/17 07:58:16;;;;;;;5.05;3.75;;;;;;;20.40;60.22;97577.97;1707809;75;675350;-73
2023/06/17 08:00:47;;;;;;;3.05;2.30;;;;;;;20.72;58.44;97568.56;1700151;75;745631;-73
2023/06/17 08:03:18;;;;;;;2.10;1.40;;;;;;;20.97;58.16;97577.22;1709819;75;677293;-71
2023/06/17 08:05:48;;;;;;;2.15;1.90;;;;;;;20.73;54.43;97575.59;1700488;75;735047;-72
2023/06/17 08:08:18;;;;;;;2.10;1.60;;;;;;;21.20;55.53;97579.38;1708659;75;689932;-73
2023/06/17 08:10:48;;;;;;;1.30;1.20;;;;;;;21.44;55.35;97565.00;1699413;75;752364;-72
2023/06/17 08:13:21;;;;;;;1.40;1.10;;;;;;;21.33;54.15;97570.13;1708643;75;691087;-72
2023/06/17 08:15:52;;;;;;;1.30;1.20;;;;;;;21.43;55.74;97571.09;1700343;75;741314;-73
2023/06/17 08:18:22;;;;;;;2.70;2.00;;;;;;;20.99;52.63;97579.44;1708691;75;676150;-69
2023/06/17 08:20:52;;;;;;;4.10;2.75;;;;;;;20.69;52.85;97578.00;1700123;75;741647;-71
2023/06/17 08:23:23;;;;;;;1.90;1.60;;;;;;;21.66;53.46;97579.53;1709105;75;674188;-74
2023/06/17 08:25:53;;;;;;;2.40;1.65;;;;;;;21.91;52.28;97568.59;1700974;75;746958;-73
2023/06/17 08:28:26;;;;;;;22.65;6.45;;;;;;;21.85;53.19;97571.56;1709143;75;674671;-73
2023/06/17 08:30:56;;;;;;;6.00;3.10;;;;;;;22.02;52.31;97557.09;1699168;75;735890;-76
2023/06/17 08:33:26;;;;;;;4.20;2.40;;;;;;;22.07;51.81;97567.31;1708373;75;670327;-75
2023/06/17 08:35:57;;;;;;;3.40;2.50;;;;;;;21.83;52.54;97576.22;1699417;75;772329;-74
2023/06/17 08:38:27;;;;;;;3.35;2.30;;;;;;;21.76;53.27;97563.75;1708477;75;677994;-71
2023/06/17 08:40:57;;;;;;;6.55;2.15;;;;;;;22.16;53.01;97556.94;1699994;75;737796;-74
2023/06/17 08:43:34;;;;;;;2.10;1.40;;;;;;;22.10;51.91;97562.66;1707769;75;718940;-72
2023/06/17 08:46:05;;;;;;;11.45;4.25;;;;;;;22.12;51.78;97563.59;1699416;75;763442;-72
2023/06/17 08:48:36;;;;;;;8.45;3.30;;;;;;;21.84;51.84;97572.13;1706047;75;855898;-74
2023/06/17 08:51:07;;;;;;;3.75;2.45;;;;;;;21.06;52.78;97564.81;1699708;75;747696;-73
2023/06/17 08:53:39;;;;;;;3.10;1.80;;;;;;;21.75;50.96;97555.97;1708946;75;691637;-74
2023/06/17 08:56:10;;;;;;;8.40;2.25;;;;;;;20.79;53.04;97570.63;1699036;75;881984;-73
2023/06/17 08:58:43;;;;;;;4.70;2.20;;;;;;;20.72;51.10;97571.34;1708835;75;740559;-74
2023/06/17 09:01:14;;;;;;;3.25;2.05;;;;;;;20.78;51.00;97560.03;1698961;75;741014;-74
2023/06/17 09:03:46;;;;;;;3.25;2.50;;;;;;;21.17;51.00;97558.19;1708819;75;684118;-75
2023/06/17 09:06:21;;;;;;;4.55;2.45;;;;;;;21.16;51.02;97563.00;1700249;75;748776;-73
2023/06/17 09:08:53;;;;;;;2.40;2.00;;;;;;;21.28;49.69;97561.38;1700641;75;688362;-70
2023/06/17 09:11:26;;;;;;;2.05;1.65;;;;;;;21.67;49.60;97565.06;1708532;75;679561;-74
2023/06/17 09:14:01;;;;;;;2.70;1.80;;;;;;;21.52;49.86;97550.34;1695816;75;942152;-73
2023/06/17 09:16:33;;;;;;;4.25;2.30;;;;;;;21.86;49.93;97542.44;1707959;75;729790;-73
2023/06/17 09:19:06;;;;;;;4.60;2.40;;;;;;;21.66;48.35;97546.84;1700528;75;693851;-76
2023/06/17 09:21:36;;;;;;;3.30;1.95;;;;;;;21.73;47.52;97550.22;1708074;75;701225;-74
2023/06/17 09:24:09;;;;;;;4.00;2.10;;;;;;;21.73;48.95;97545.38;1700000;75;680730;-73
2023/06/17 09:26:44;;;;;;;3.20;2.40;;;;;;;21.96;49.51;97556.56;1708313;75;678341;-73
2023/06/17 09:29:18;;;;;;;2.60;2.30;;;;;;;22.00;48.91;97556.91;1701441;75;677951;-73
2023/06/17 09:31:52;;;;;;;2.35;1.95;;;;;;;21.97;47.84;97543.34;1708495;75;687603;-73
2023/06/17 09:34:24;;;;;;;3.05;2.30;;;;;;;22.07;48.86;97552.63;1699599;75;745206;-73
2023/06/17 09:37:03;;;;;;;2.05;1.85;;;;;;;22.23;47.29;97547.84;1709125;75;682428;-74
2023/06/17 09:39:34;;;;;;;2.75;2.15;;;;;;;22.16;47.83;97549.31;1699342;75;744782;-73
2023/06/17 09:42:12;;;;;;;3.05;2.45;;;;;;;22.06;47.05;97531.66;1708603;75;674912;-76
2023/06/17 09:44:46;;;;;;;6.00;2.60;;;;;;;21.72;46.58;97538.31;1699099;75;746548;-72
2023/06/17 09:47:22;;;;;;;2.90;2.20;;;;;;;22.40;46.88;97531.28;1708800;75;680403;-75
2023/06/17 09:49:52;;;;;;;3.50;2.65;;;;;;;22.39;46.46;97524.19;1700159;75;752286;-73
2023/06/17 09:52:22;;;;;;;4.25;2.75;;;;;;;22.05;46.77;97542.03;1708168;75;676360;-74
2023/06/17 09:54:54;;;;;;;4.30;2.45;;;;;;;22.23;46.48;97540.22;1699664;75;746499;-76
2023/06/17 09:57:26;;;;;;;3.25;2.80;;;;;;;22.03;45.35;97524.38;1709399;75;676223;-76
2023/06/17 10:00:00;;;;;;;2.55;2.00;;;;;;;22.83;46.73;97525.97;1698980;75;761322;-76
2023/06/17 10:02:30;;;;;;;3.50;2.20;;;;;;;22.37;45.95;97521.25;1708709;75;706934;-75
2023/06/17 10:05:00;;;;;;;3.40;2.40;;;;;;;22.69;45.71;97517.06;1699687;75;748995;-75
2023/06/17 10:07:31;;;;;;;6.65;3.00;;;;;;;22.95;44.63;97524.25;1709164;75;676542;-74
2023/06/17 10:10:02;;;;;;;3.65;2.30;;;;;;;22.63;45.53;97516.53;1699780;75;745854;-76
2023/06/17 10:12:34;;;;;;;4.00;2.55;;;;;;;22.45;44.96;97508.00;1709797;75;678710;-74
2023/06/17 10:15:10;;;;;;;4.70;2.85;;;;;;;23.29;45.44;97500.66;1699954;75;740602;-72
2023/06/17 10:17:41;;;;;;;4.90;3.00;;;;;;;23.06;44.02;97506.34;1703910;75;675478;-72
2023/06/17 10:20:14;;;;;;;3.10;2.40;;;;;;;22.68;44.98;97512.78;1708245;75;684155;-73
2023/06/17 10:22:45;;;;;;;2.70;2.30;;;;;;;23.13;44.23;97502.78;1701528;75;674439;-74
2023/06/17 10:25:23;;;;;;;3.60;2.60;;;;;;;23.13;44.20;97500.00;1708651;75;674442;-75
2023/06/17 10:27:54;;;;;;;4.80;2.40;;;;;;;23.04;45.07;97500.59;1701582;75;678003;-74
2023/06/17 10:30:35;;;;;;;2.80;2.30;;;;;;;23.43;45.02;97503.91;1708290;75;685702;-75
2023/06/17 10:33:08;;;;;;;3.20;2.55;;;;;;;23.32;45.05;97502.31;1700195;75;743034;-74
2023/06/17 10:35:43;;;;;;;3.10;2.80;;;;;;;22.82;45.10;97502.88;1708685;75;677925;-74
2023/06/17 10:38:30;;;;;;;5.40;3.70;;;;;;;23.13;43.46;97492.34;1700513;75;743113;-73
2023/06/17 10:41:01;;;;;;;5.00;2.90;;;;;;;23.20;44.72;97490.84;1700559;75;681964;-74
2023/06/17 10:43:38;;;;;;;4.10;2.40;;;;;;;23.51;44.76;97504.63;1708987;75;671380;-78
2023/06/17 10:46:12;;;;;;;3.35;2.65;;;;;;;23.23;43.34;97486.16;1698904;75;891054;-73
2023/06/17 10:48:42;;;;;;;3.60;2.75;;;;;;;23.47;43.10;97491.03;1709130;75;670338;-74
2023/06/17 10:51:15;;;;;;;3.20;2.30;;;;;;;23.91;44.21;97498.19;1701053;75;676877;-73
2023/06/17 10:53:51;;;;;;;6.40;2.75;;;;;;;23.26;44.42;97483.00;1709413;75;683566;-75
2023/06/17 10:56:22;;;;;;;3.00;2.45;;;;;;;23.51;42.85;97488.59;1700770;75;746355;-74
2023/06/17 10:58:52;;;;;;;9.65;4.55;;;;;;;23.27;41.58;97480.94;1709955;75;683895;-76
2023/06/17 11:01:25;;;;;;;6.05;3.10;;;;;;;23.74;41.96;97480.09;1699380;75;738473;-77
2023/06/17 11:03:55;;;;;;;8.10;4.50;;;;;;;23.92;42.70;97482.91;1708280;75;675358;-76
2023/06/17 11:06:25;;;;;;;5.10;3.55;;;;;;;24.13;43.50;97474.91;1699432;75;739012;-75
2023/06/17 11:08:55;;;;;;;5.20;3.55;;;;;;;23.98;43.17;97467.41;1708405;75;707548;-74
2023/06/17 11:11:26;;;;;;;17.35;5.55;;;;;;;24.12;42.74;97462.22;1699701;75;740152;-74
2023/06/17 11:13:56;;;;;;;4.95;3.45;;;;;;;24.12;41.88;97464.28;1709613;75;675841;-75
2023/06/17 11:16:29;;;;;;;4.30;2.70;;;;;;;24.24;42.07;97465.28;1697746;75;919973;-77
2023/06/17 11:18:59;;;;;;;7.75;3.60;;;;;;;24.17;42.32;97466.84;1709227;75;680090;-76
2023/06/17 11:21:30;;;;;;;4.70;2.90;;;;;;;24.41;40.98;97462.50;1699699;75;763060;-77
2023/06/17 11:24:00;;;;;;;3.80;2.80;;;;;;;24.88;41.22;97454.34;1709304;75;676837;-75
2023/06/17 11:26:30;;;;;;;4.05;2.70;;;;;;;24.67;41.29;97449.91;1700288;75;754724;-76
2023/06/17 11:29:00;;;;;;;5.15;3.10;;;;;;;24.47;40.34;97462.28;1706690;75;878064;-74
2023/06/17 11:31:40;;;;;;;3.65;3.00;;;;;;;24.84;41.21;97454.72;1700007;75;733683;-75
2023/06/17 11:34:10;;;;;;;3.40;2.90;;;;;;;24.19;41.19;97443.88;1700722;75;714969;-75
2023/06/17 11:36:42;;;;;;;5.70;3.50;;;;;;;24.02;40.40;97450.19;1710063;75;683060;-73
2023/06/17 11:39:12;;;;;;;3.55;2.45;;;;;;;24.44;40.88;97444.56;1700605;75;680159;-76
2023/06/17 11:41:42;;;;;;;3.40;2.70;;;;;;;23.99;40.74;97445.75;1708682;75;676210;-76